createdAt,value
2023-02-21T00:01:02.310Z,29.60
2023-02-21T00:03:48.299Z,31.15
2023-02-21T00:06:34.204Z,31.38
2023-02-21T00:09:20.030Z,34.38
2023-02-21T00:12:06.056Z,33.38
2023-02-21T00:14:51.927Z,31.52
2023-02-21T00:17:37.760Z,31.95
2023-02-21T00:20:23.987Z,35.95
2023-02-21T00:23:09.984Z,33.03
2023-02-21T00:25:55.973Z,36.75
2023-02-21T00:28:42.069Z,31.42
2023-02-21T00:31:28.096Z,35.63
2023-02-21T00:34:14.159Z,33.03
2023-02-21T00:37:00.181Z,30.85
2023-02-21T00:39:46.200Z,33.15
2023-02-21T00:42:32.997Z,33.65
2023-02-21T00:45:19.096Z,30.60
2023-02-21T00:48:05.118Z,35.30
2023-02-21T00:50:51.134Z,34.00
2023-02-21T00:53:37.332Z,36.60
2023-02-21T00:56:24.028Z,37.63
2023-02-21T00:59:09.987Z,36.25
2023-02-21T01:01:56.120Z,41.30
2023-02-21T01:04:42.177Z,39.38
2023-02-21T01:07:28.229Z,35.50
2023-02-21T01:10:14.129Z,34.20
2023-02-21T01:13:00.133Z,32.78
2023-02-21T01:15:46.305Z,36.28
2023-02-21T01:18:32.145Z,36.60
2023-02-21T01:21:17.976Z,33.17
2023-02-21T01:24:03.892Z,39.10
2023-02-21T01:26:49.966Z,37.00
2023-02-21T01:29:35.892Z,37.00
2023-02-21T01:32:21.821Z,37.50
2023-02-21T01:35:07.787Z,38.45
2023-02-21T01:37:53.367Z,36.28
2023-02-21T01:40:39.382Z,41.70
2023-02-21T01:43:35.731Z,38.88
2023-02-21T01:46:21.895Z,39.92
2023-02-21T01:49:08.415Z,39.13
2023-02-21T01:51:57.606Z,38.08
2023-02-21T01:54:46.102Z,37.53
2023-02-21T01:57:32.691Z,39.92
2023-02-21T02:00:19.398Z,37.63
2023-02-21T02:03:11.652Z,45.72
2023-02-21T02:05:58.603Z,44.17
2023-02-21T02:08:46.634Z,49.72
2023-02-21T02:11:51.157Z,44.40
2023-02-21T02:14:30.293Z,42.92
2023-02-21T02:17:04.749Z,45.35
2023-02-21T02:19:32.315Z,46.35
2023-02-21T02:22:18.080Z,48.10
2023-02-21T02:24:56.626Z,47.10
2023-02-21T02:27:42.558Z,46.95
2023-02-21T02:30:28.949Z,45.47
2023-02-21T02:33:15.288Z,49.67
2023-02-21T02:35:53.854Z,48.33
2023-02-21T02:38:31.824Z,48.17
2023-02-21T02:41:01.525Z,45.78
2023-02-21T02:43:28.624Z,52.33
2023-02-21T02:46:05.954Z,49.60
2023-02-21T02:48:33.063Z,46.95
2023-02-21T02:51:01.484Z,43.15
2023-02-21T02:53:29.903Z,45.63
2023-02-21T02:55:57.925Z,48.10
2023-02-21T02:58:27.053Z,51.85
2023-02-21T03:01:09.091Z,49.25
2023-02-21T03:03:54.872Z,50.63
2023-02-21T03:06:34.670Z,52.25
2023-02-21T03:09:20.689Z,45.03
2023-02-21T03:12:11.092Z,50.63
2023-02-21T03:14:41.358Z,50.22
2023-02-21T03:17:13.050Z,54.63
2023-02-21T03:19:41.410Z,47.70
2023-02-21T03:22:10.449Z,59.28
2023-02-21T03:24:39.258Z,53.85
2023-02-21T03:27:07.964Z,52.88
2023-02-21T03:29:35.848Z,48.35
2023-02-21T03:32:12.986Z,48.15
2023-02-21T03:34:40.854Z,53.67
2023-02-21T03:37:09.136Z,54.83
2023-02-21T03:39:36.213Z,49.72
2023-02-21T03:42:03.549Z,54.08
2023-02-21T03:44:30.638Z,56.83
2023-02-21T03:46:57.807Z,55.88
2023-02-21T03:49:24.891Z,57.42
2023-02-21T03:51:52.086Z,55.45
2023-02-21T03:54:19.215Z,56.50
2023-02-21T03:56:46.357Z,52.10
2023-02-21T03:59:13.513Z,49.23
2023-02-21T04:01:40.680Z,59.28
2023-02-21T04:10:53.177Z,49.60
2023-02-21T04:13:20.890Z,54.78
2023-02-21T04:15:47.998Z,58.63
2023-02-21T04:18:15.098Z,53.42
2023-02-21T04:20:42.162Z,56.03
2023-02-21T04:23:09.272Z,55.95
2023-02-21T04:25:36.374Z,60.30
2023-02-21T04:28:03.531Z,60.95
2023-02-21T04:30:30.680Z,60.25
2023-02-21T04:32:57.798Z,63.95
2023-02-21T04:35:24.881Z,60.47
2023-02-21T04:37:51.964Z,73.07
2023-02-21T04:40:19.082Z,62.00
2023-02-21T04:42:46.124Z,63.28
2023-02-21T04:45:13.279Z,69.68
2023-02-21T04:47:40.528Z,71.55
2023-02-21T04:50:08.098Z,68.95
2023-02-21T04:52:35.233Z,66.40
2023-02-21T04:55:02.384Z,72.00
2023-02-21T04:57:29.516Z,72.70
2023-02-21T04:59:57.217Z,79.68
2023-02-21T05:02:24.311Z,66.20
2023-02-21T05:04:51.908Z,75.15
2023-02-21T05:07:19.044Z,67.28
2023-02-21T05:09:46.338Z,69.15
2023-02-21T05:12:13.705Z,78.45
2023-02-21T05:14:41.808Z,74.95
2023-02-21T05:17:08.974Z,73.00
2023-02-21T05:19:36.153Z,77.72
2023-02-21T05:22:06.503Z,80.30
2023-02-21T05:24:33.897Z,80.38
2023-02-21T05:27:01.181Z,76.38
2023-02-21T05:29:28.345Z,72.78
2023-02-21T05:31:55.599Z,80.40
2023-02-21T05:34:22.848Z,76.35
2023-02-21T05:36:50.072Z,74.53
2023-02-21T05:39:17.212Z,79.40
2023-02-21T05:41:50.874Z,84.55
2023-02-21T05:44:18.241Z,74.97
2023-02-21T05:46:46.033Z,80.22
2023-02-21T05:49:13.431Z,83.40
2023-02-21T05:51:41.948Z,83.90
2023-02-21T05:54:09.475Z,82.60
2023-02-21T05:56:40.358Z,83.72
2023-02-21T05:59:08.734Z,79.68
2023-02-21T06:01:36.135Z,85.78
2023-02-21T06:04:03.487Z,81.13
2023-02-21T06:06:30.579Z,83.97
2023-02-21T06:08:57.647Z,82.22
2023-02-21T06:11:26.207Z,95.05
2023-02-21T06:13:53.913Z,88.95
2023-02-21T06:16:21.135Z,89.82
2023-02-21T06:18:55.478Z,86.95
2023-02-21T06:21:22.981Z,94.88
2023-02-21T06:23:50.207Z,87.97
2023-02-21T06:26:18.037Z,86.93
2023-02-21T06:28:45.116Z,88.53
2023-02-21T06:31:12.541Z,91.65
2023-02-21T06:33:39.792Z,95.38
2023-02-21T06:36:07.952Z,85.28
2023-02-21T06:38:35.833Z,101.82
2023-02-21T06:41:06.749Z,95.88
2023-02-21T06:43:34.364Z,103.93
2023-02-21T06:46:01.516Z,100.80
2023-02-21T06:48:28.661Z,90.40
2023-02-21T06:50:55.736Z,96.47
2023-02-21T06:53:22.853Z,98.82
2023-02-21T06:55:50.007Z,115.63
2023-02-21T06:58:17.112Z,102.30
2023-02-21T07:00:44.183Z,94.85
2023-02-21T07:03:11.257Z,98.30
2023-02-21T07:05:39.086Z,92.25
2023-02-21T07:08:06.322Z,99.93
2023-02-21T07:10:33.450Z,89.90
2023-02-21T07:13:00.610Z,105.15
2023-02-21T07:15:27.790Z,109.10
2023-02-21T07:17:54.852Z,98.57
2023-02-21T07:20:22.100Z,104.40
2023-02-21T07:22:49.230Z,97.25
2023-02-21T07:25:17.912Z,92.93
2023-02-21T07:27:45.047Z,98.20
2023-02-21T07:30:12.499Z,101.35
2023-02-21T07:32:40.039Z,103.63
2023-02-21T07:35:07.487Z,100.85
2023-02-21T07:37:34.796Z,114.68
2023-02-21T07:40:01.856Z,109.90
2023-02-21T07:42:29.069Z,109.15
2023-02-21T07:44:59.519Z,111.90
2023-02-21T07:47:27.097Z,101.50
2023-02-21T07:49:54.806Z,106.47
2023-02-21T07:52:22.854Z,96.72
2023-02-21T07:54:50.056Z,103.00
2023-02-21T07:57:18.004Z,106.22
2023-02-21T07:59:45.617Z,109.38
2023-02-21T08:02:13.100Z,106.65
2023-02-21T08:04:40.790Z,94.55
2023-02-21T08:07:08.349Z,107.97
2023-02-21T08:09:35.762Z,102.00
2023-02-21T08:12:02.903Z,96.32
2023-02-21T08:14:30.042Z,97.53
2023-02-21T08:16:57.166Z,98.95
2023-02-21T08:19:24.501Z,101.30
2023-02-21T08:21:51.713Z,100.28
2023-02-21T08:24:19.612Z,94.75
2023-02-21T08:26:47.011Z,94.38
2023-02-21T08:29:14.934Z,97.07
2023-02-21T08:31:44.347Z,99.27
2023-02-21T08:34:11.970Z,93.90
2023-02-21T08:36:40.330Z,84.20
2023-02-21T08:39:07.848Z,105.63
2023-02-21T08:41:38.773Z,95.78
2023-02-21T08:44:06.916Z,96.05
2023-02-21T08:46:34.582Z,100.05
2023-02-21T08:49:02.284Z,90.93
2023-02-21T08:51:30.185Z,104.63
2023-02-21T08:54:00.608Z,96.43
2023-02-21T08:56:28.108Z,95.25
2023-02-21T08:58:55.428Z,102.22
2023-02-21T09:01:23.301Z,100.25
2023-02-21T09:03:50.532Z,91.57
2023-02-21T09:06:18.071Z,102.72
2023-02-21T09:08:45.221Z,94.27
2023-02-21T09:11:12.473Z,97.25
2023-02-21T09:13:39.670Z,85.03
2023-02-21T09:16:06.934Z,94.07
2023-02-21T09:18:34.398Z,91.75
2023-02-21T09:21:01.544Z,89.53
2023-02-21T09:23:29.913Z,81.93
2023-02-21T09:25:57.392Z,88.40
2023-02-21T09:28:24.577Z,88.60
2023-02-21T09:30:52.028Z,89.88
2023-02-21T09:33:19.327Z,81.47
2023-02-21T09:35:46.416Z,82.85
2023-02-21T09:38:13.502Z,87.28
2023-02-21T09:40:49.125Z,90.07
2023-02-21T09:43:29.145Z,81.07
2023-02-21T09:45:59.523Z,84.10
2023-02-21T09:48:27.363Z,84.43
2023-02-21T09:50:55.572Z,74.82
2023-02-21T09:53:43.366Z,83.43
2023-02-21T09:56:24.297Z,81.38
2023-02-21T09:58:51.538Z,80.38
2023-02-21T10:01:32.336Z,74.28
2023-02-21T10:04:14.872Z,78.32
2023-02-21T10:06:47.819Z,75.45
2023-02-21T10:09:21.265Z,74.05
2023-02-21T10:12:07.307Z,75.30
2023-02-21T10:14:37.362Z,75.45
2023-02-21T10:17:16.524Z,80.15
2023-02-21T10:19:45.361Z,75.72
2023-02-21T10:22:24.154Z,77.68
2023-02-21T10:24:52.231Z,71.22
2023-02-21T10:27:23.813Z,76.55
2023-02-21T10:30:10.258Z,78.80
2023-02-21T10:32:38.361Z,67.28
2023-02-21T10:35:05.700Z,74.78
2023-02-21T10:37:44.563Z,84.13
2023-02-21T10:40:11.857Z,80.90
2023-02-21T10:42:41.247Z,78.53
2023-02-21T10:45:09.649Z,80.38
2023-02-21T10:47:46.774Z,82.68
2023-02-21T10:50:14.098Z,84.95
2023-02-21T10:52:59.455Z,82.22
2023-02-21T10:55:33.167Z,78.40
2023-02-21T10:58:07.480Z,84.15
2023-02-21T11:00:36.471Z,85.88
2023-02-21T11:03:08.802Z,77.47
2023-02-21T11:05:37.149Z,78.43
2023-02-21T11:08:08.148Z,78.28
2023-02-21T11:10:36.812Z,76.40
2023-02-21T11:13:06.798Z,76.97
2023-02-21T11:15:33.996Z,79.67
2023-02-21T11:18:17.986Z,85.90
2023-02-21T11:20:45.897Z,81.40
2023-02-21T11:23:28.127Z,76.03
2023-02-21T11:26:00.316Z,76.15
2023-02-21T11:28:27.577Z,75.13
2023-02-21T11:31:14.031Z,70.60
2023-02-21T11:33:43.205Z,88.43
2023-02-21T11:36:14.937Z,86.22
2023-02-21T11:38:43.587Z,81.82
2023-02-21T11:41:18.251Z,79.00
2023-02-21T11:43:52.762Z,84.50
2023-02-21T11:46:32.110Z,80.07
2023-02-21T11:49:21.053Z,83.45
2023-02-21T11:52:17.745Z,69.10
2023-02-21T11:54:45.177Z,65.80
2023-02-21T11:57:24.602Z,70.72
2023-02-21T11:59:51.709Z,64.68
2023-02-21T12:02:32.355Z,60.42
2023-02-21T12:05:05.656Z,66.38
2023-02-21T12:07:36.049Z,61.17
2023-02-21T12:10:22.032Z,51.55
2023-02-21T12:13:08.125Z,49.00
2023-02-21T12:15:54.899Z,49.17
2023-02-21T12:18:25.068Z,45.67
2023-02-21T12:21:10.688Z,48.03
2023-02-21T12:23:41.344Z,40.40
2023-02-21T12:26:20.744Z,36.90
2023-02-21T12:28:50.871Z,32.67
2023-02-21T12:31:36.458Z,31.67
2023-02-21T12:34:11.638Z,31.13
2023-02-21T12:36:50.800Z,29.50
2023-02-21T12:39:25.414Z,29.90
2023-02-21T12:42:07.852Z,29.05
2023-02-21T12:44:53.859Z,24.05
2023-02-21T12:47:24.731Z,27.23
2023-02-21T12:49:51.773Z,20.50
2023-02-21T12:52:28.595Z,21.42
2023-02-21T12:54:59.918Z,18.92
2023-02-21T12:57:31.424Z,19.05
2023-02-21T13:00:08.283Z,18.37
2023-02-21T13:02:51.058Z,22.40
2023-02-21T13:05:20.573Z,22.55
2023-02-21T13:07:51.756Z,23.25
2023-02-21T13:10:27.135Z,20.77
2023-02-21T13:12:59.568Z,20.27
2023-02-21T13:15:27.880Z,18.45
2023-02-21T13:18:12.581Z,18.65
2023-02-21T13:20:42.216Z,21.05
2023-02-21T13:23:09.604Z,17.88
2023-02-21T13:25:54.841Z,22.30
2023-02-21T13:28:36.512Z,21.65
2023-02-21T13:31:05.280Z,18.85
2023-02-21T13:33:45.769Z,18.83
2023-02-21T13:36:27.608Z,17.60
2023-02-21T13:39:05.794Z,20.60
2023-02-21T13:41:35.918Z,17.10
2023-02-21T13:44:07.886Z,19.70
2023-02-21T13:46:34.996Z,19.17
2023-02-21T13:49:20.752Z,18.67
2023-02-21T13:51:49.291Z,19.80
2023-02-21T13:54:22.658Z,17.95
2023-02-21T13:56:49.906Z,17.48
2023-02-21T13:59:35.676Z,18.45
2023-02-21T14:02:23.536Z,19.88
2023-02-21T14:04:53.762Z,19.67
2023-02-21T14:07:40.372Z,18.35
2023-02-21T14:10:18.322Z,17.02
2023-02-21T14:12:45.867Z,17.25
2023-02-21T14:15:13.748Z,17.98
2023-02-21T14:17:40.809Z,16.33
2023-02-21T14:20:15.507Z,18.30
2023-02-21T14:22:42.636Z,13.63
2023-02-21T14:25:17.980Z,15.23
2023-02-21T14:27:45.239Z,14.00
2023-02-21T14:30:12.467Z,13.97
2023-02-21T14:32:42.750Z,16.08
2023-02-21T14:35:28.725Z,16.60
2023-02-21T14:38:00.088Z,14.63
2023-02-21T14:40:31.415Z,14.43
2023-02-21T14:43:16.493Z,13.43
2023-02-21T14:45:46.483Z,13.68
2023-02-21T14:48:18.299Z,13.88
2023-02-21T14:51:07.387Z,13.63
2023-02-21T14:53:59.257Z,12.35
2023-02-21T14:56:26.381Z,13.57
2023-02-21T14:58:56.519Z,16.55
2023-02-21T15:01:26.734Z,15.45
2023-02-21T15:04:06.105Z,13.90
2023-02-21T15:06:33.817Z,14.38
2023-02-21T15:09:11.741Z,13.43
2023-02-21T15:11:40.072Z,15.45
2023-02-21T15:14:24.618Z,20.42
2023-02-21T15:16:54.007Z,20.02
2023-02-21T15:19:41.405Z,14.43
2023-02-21T15:22:14.635Z,14.37
2023-02-21T15:24:42.639Z,14.90
2023-02-21T15:27:13.707Z,16.80
2023-02-21T15:29:41.523Z,14.65
2023-02-21T15:32:11.861Z,13.82
2023-02-21T15:34:46.871Z,12.73
2023-02-21T15:37:24.704Z,15.05
2023-02-21T15:39:55.468Z,16.33
2023-02-21T15:42:23.300Z,12.27
2023-02-21T15:44:52.931Z,16.10
2023-02-21T15:47:21.824Z,10.40
2023-02-21T15:50:00.581Z,11.55
2023-02-21T15:52:29.882Z,12.13
2023-02-21T15:55:13.462Z,10.57
2023-02-21T15:57:40.555Z,12.55
2023-02-21T16:00:18.548Z,11.27
2023-02-21T16:02:45.835Z,11.38
2023-02-21T16:05:27.036Z,11.40
2023-02-21T16:07:54.235Z,12.80
2023-02-21T16:10:22.731Z,11.13
2023-02-21T16:12:56.201Z,12.73
2023-02-21T16:15:28.285Z,10.68
2023-02-21T16:17:57.166Z,12.68
2023-02-21T16:20:27.576Z,12.60
2023-02-21T16:23:13.535Z,14.40
2023-02-21T16:25:59.552Z,16.17
2023-02-21T16:28:27.045Z,16.55
2023-02-21T16:30:55.687Z,14.73
2023-02-21T16:33:22.951Z,16.65
2023-02-21T16:35:50.125Z,15.10
2023-02-21T16:38:18.652Z,14.90
2023-02-21T16:40:45.958Z,16.23
2023-02-21T16:43:18.378Z,17.77
2023-02-21T16:45:45.648Z,17.65
2023-02-21T16:48:15.491Z,18.77
2023-02-21T16:50:42.809Z,17.77
2023-02-21T16:53:15.235Z,21.95
2023-02-21T16:55:42.707Z,18.70
2023-02-21T16:58:19.333Z,19.65
2023-02-21T17:00:46.458Z,18.33
2023-02-21T17:03:13.574Z,15.67
2023-02-21T17:05:40.810Z,14.95
2023-02-21T17:08:08.408Z,17.55
2023-02-21T17:10:35.522Z,16.63
2023-02-21T17:13:03.635Z,17.00
2023-02-21T17:15:32.115Z,17.43
2023-02-21T17:17:59.956Z,17.77
2023-02-21T17:20:27.176Z,19.38
2023-02-21T17:22:54.635Z,18.60
2023-02-21T17:25:23.395Z,18.35
2023-02-21T17:27:50.954Z,21.07
2023-02-21T17:30:19.378Z,20.27
2023-02-21T17:32:47.026Z,28.00
2023-02-21T17:35:15.373Z,23.13
2023-02-21T17:37:47.460Z,23.88
2023-02-21T17:40:15.752Z,23.23
2023-02-21T17:42:43.066Z,23.95
2023-02-21T17:45:10.556Z,24.75
2023-02-21T17:47:37.829Z,23.85
2023-02-21T17:50:05.949Z,21.20
2023-02-21T17:52:33.323Z,19.63
2023-02-21T17:55:02.632Z,22.08
2023-02-21T17:57:34.958Z,24.50
2023-02-21T18:00:02.073Z,26.40
2023-02-21T18:02:29.202Z,25.27
2023-02-21T18:04:58.745Z,24.63
2023-02-21T18:07:28.386Z,23.52
2023-02-21T18:09:55.548Z,24.38
2023-02-21T18:12:22.643Z,23.52
2023-02-21T18:14:49.794Z,24.63
2023-02-21T18:17:18.421Z,26.37
2023-02-21T18:19:45.509Z,28.55
2023-02-21T18:22:12.633Z,21.80
2023-02-21T18:24:40.845Z,25.25
2023-02-21T18:27:08.580Z,23.90
2023-02-21T18:29:35.779Z,28.10
2023-02-21T18:32:02.973Z,27.58
2023-02-21T18:34:30.274Z,28.25
2023-02-21T18:36:57.495Z,28.40
2023-02-21T18:39:24.959Z,24.52
2023-02-21T18:41:53.295Z,31.30
2023-02-21T18:44:20.684Z,29.02
2023-02-21T18:46:54.587Z,32.40
2023-02-21T18:49:29.562Z,28.92
2023-02-21T18:51:56.678Z,30.20
2023-02-21T18:54:27.100Z,27.35
2023-02-21T18:57:08.490Z,26.88
2023-02-21T19:00:02.759Z,30.13
2023-02-21T19:02:30.054Z,29.00
2023-02-21T19:04:57.207Z,33.28
2023-02-21T19:07:24.389Z,34.47
2023-02-21T19:09:51.531Z,31.02
2023-02-21T19:12:18.809Z,34.53
2023-02-21T19:14:45.939Z,35.63
2023-02-21T19:17:13.101Z,32.60
2023-02-21T19:19:40.213Z,33.80
2023-02-21T19:22:07.772Z,34.10
2023-02-21T19:24:35.106Z,35.03
2023-02-21T19:27:02.568Z,34.80
2023-02-21T19:29:29.804Z,35.53
2023-02-21T19:31:57.071Z,33.33
2023-02-21T19:34:24.337Z,37.65
2023-02-21T19:36:51.617Z,39.08
2023-02-21T19:39:19.195Z,32.65
2023-02-21T19:41:46.605Z,36.35
2023-02-21T19:44:13.795Z,36.78
2023-02-21T19:46:41.054Z,36.42
2023-02-21T19:49:14.559Z,35.70
2023-02-21T19:51:42.213Z,38.03
2023-02-21T19:54:09.373Z,39.83
2023-02-21T19:56:36.542Z,36.22
2023-02-21T19:59:03.679Z,36.03
2023-02-21T20:01:32.449Z,36.30
2023-02-21T20:04:00.396Z,37.13
2023-02-21T20:06:28.182Z,35.88
2023-02-21T20:08:56.049Z,35.95
2023-02-21T20:11:23.943Z,40.55
2023-02-21T20:13:51.091Z,43.42
2023-02-21T20:16:20.419Z,44.08
2023-02-21T20:18:48.739Z,41.15
2023-02-21T20:21:23.085Z,45.67
2023-02-21T20:23:50.334Z,47.90
2023-02-21T20:26:17.569Z,56.42
2023-02-21T20:28:44.873Z,50.55
2023-02-21T20:31:14.037Z,50.50
2023-02-21T20:33:41.428Z,49.83
2023-02-21T20:36:09.208Z,53.13
2023-02-21T20:38:39.598Z,47.55
2023-02-21T20:41:11.255Z,49.80
2023-02-21T20:43:38.410Z,56.17
2023-02-21T20:46:05.725Z,54.33
2023-02-21T20:48:33.146Z,56.13
2023-02-21T20:51:00.527Z,56.55
2023-02-21T20:53:27.944Z,50.55
2023-02-21T20:55:55.577Z,62.25
2023-02-21T20:58:23.344Z,54.83
2023-02-21T21:00:50.513Z,55.55
2023-02-21T21:03:18.089Z,58.63
2023-02-21T21:05:47.997Z,61.72
2023-02-21T21:08:15.325Z,61.85
2023-02-21T21:10:48.560Z,53.83
2023-02-21T21:13:16.496Z,66.53
2023-02-21T21:15:43.812Z,58.28
2023-02-21T21:18:12.283Z,60.33
2023-02-21T21:20:39.667Z,60.22
2023-02-21T21:23:07.645Z,68.63
2023-02-21T21:25:35.754Z,68.00
2023-02-21T21:28:03.226Z,63.45
2023-02-21T21:30:31.164Z,64.32
2023-02-21T21:32:58.379Z,70.15
2023-02-21T21:35:30.037Z,67.93
2023-02-21T21:37:57.839Z,58.35
2023-02-21T21:40:26.929Z,64.45
2023-02-21T21:42:54.655Z,73.90
2023-02-21T21:45:25.247Z,65.90
2023-02-21T21:47:53.546Z,58.05
2023-02-21T21:50:21.472Z,61.53
2023-02-21T21:52:53.339Z,63.80
2023-02-21T21:55:26.569Z,63.97
2023-02-21T21:57:54.122Z,60.17
2023-02-21T22:00:22.873Z,58.13
2023-02-21T22:02:50.911Z,53.53
2023-02-21T22:05:18.377Z,52.08
2023-02-21T22:07:45.593Z,51.60
2023-02-21T22:10:12.917Z,60.13
2023-02-21T22:12:40.141Z,51.67
2023-02-21T22:15:10.557Z,52.05
2023-02-21T22:17:37.984Z,54.97
2023-02-21T22:20:17.019Z,48.45
2023-02-21T22:22:45.405Z,48.80
2023-02-21T22:25:13.558Z,47.03
2023-02-21T22:27:41.149Z,52.20
2023-02-21T22:30:09.219Z,50.25
2023-02-21T22:32:36.784Z,49.80
2023-02-21T22:35:04.622Z,47.33
2023-02-21T22:37:33.689Z,48.92
2023-02-21T22:40:00.962Z,45.78
2023-02-21T22:42:28.130Z,48.42
2023-02-21T22:44:55.330Z,46.53
2023-02-21T22:47:22.465Z,49.00
2023-02-21T22:49:49.570Z,48.13
2023-02-21T22:52:16.757Z,42.33
2023-02-21T22:54:43.865Z,47.08
2023-02-21T22:57:11.079Z,43.00
2023-02-21T22:59:38.237Z,40.53
2023-02-21T23:02:05.436Z,42.58
2023-02-21T23:04:37.489Z,44.08
2023-02-21T23:07:05.330Z,39.60
2023-02-21T23:09:36.846Z,43.75
2023-02-21T23:12:05.836Z,40.05
2023-02-21T23:14:34.995Z,43.20
2023-02-21T23:17:02.179Z,35.78
2023-02-21T23:19:30.367Z,37.15
2023-02-21T23:22:00.375Z,37.92
2023-02-21T23:24:28.245Z,42.28
2023-02-21T23:26:55.527Z,36.25
2023-02-21T23:29:24.245Z,36.83
2023-02-21T23:31:52.163Z,36.03
2023-02-21T23:34:19.779Z,38.78
2023-02-21T23:36:49.028Z,34.63
2023-02-21T23:39:16.259Z,37.15
2023-02-21T23:41:48.551Z,32.58
2023-02-21T23:44:16.087Z,34.35
2023-02-21T23:46:44.818Z,31.80
2023-02-21T23:49:15.570Z,36.20
2023-02-21T23:51:43.543Z,39.60
2023-02-21T23:54:10.995Z,34.97
2023-02-21T23:56:40.180Z,36.95
2023-02-21T23:59:07.976Z,35.70
